sensor_id;sensor_type;location;lat;lon;timestamp;P1;durP1;ratioP1;P2;durP2;ratioP2
37559;SDS011;23398;50.928;7.084;2022-08-24T00:01:04;3.22;;;1.95;;
37559;SDS011;23398;50.928;7.084;2022-08-24T00:03:30;3.03;;;1.98;;
37559;SDS011;23398;50.928;7.084;2022-08-24T00:05:57;2.70;;;1.95;;
37559;SDS011;23398;50.928;7.084;2022-08-24T00:08:22;2.85;;;2.05;;
37559;SDS011;23398;50.928;7.084;2022-08-24T00:10:48;2.60;;;2.00;;
37559;SDS011;23398;50.928;7.084;2022-08-24T00:13:14;4.32;;;1.85;;
37559;SDS011;23398;50.928;7.084;2022-08-24T00:15:40;3.55;;;1.90;;
37559;SDS011;23398;50.928;7.084;2022-08-24T00:18:06;2.75;;;2.00;;
37559;SDS011;23398;50.928;7.084;2022-08-24T00:20:32;2.60;;;2.00;;
37559;SDS011;23398;50.928;7.084;2022-08-24T00:22:58;3.03;;;1.80;;
37559;SDS011;23398;50.928;7.084;2022-08-24T00:25:24;2.60;;;1.90;;
37559;SDS011;23398;50.928;7.084;2022-08-24T00:27:50;2.10;;;1.90;;
37559;SDS011;23398;50.928;7.084;2022-08-24T00:30:16;2.13;;;1.80;;
37559;SDS011;23398;50.928;7.084;2022-08-24T00:32:44;3.55;;;2.03;;
37559;SDS011;23398;50.928;7.084;2022-08-24T00:35:11;5.50;;;2.10;;
37559;SDS011;23398;50.928;7.084;2022-08-24T00:37:39;3.28;;;2.13;;
37559;SDS011;23398;50.928;7.084;2022-08-24T00:40:06;3.28;;;2.05;;
37559;SDS011;23398;50.928;7.084;2022-08-24T00:42:35;2.78;;;2.03;;
37559;SDS011;23398;50.928;7.084;2022-08-24T00:45:05;3.65;;;2.10;;
37559;SDS011;23398;50.928;7.084;2022-08-24T00:47:41;2.90;;;1.95;;
37559;SDS011;23398;50.928;7.084;2022-08-24T00:50:11;4.75;;;2.00;;
37559;SDS011;23398;50.928;7.084;2022-08-24T00:52:48;2.42;;;1.70;;
37559;SDS011;23398;50.928;7.084;2022-08-24T00:55:22;2.65;;;1.80;;
37559;SDS011;23398;50.928;7.084;2022-08-24T00:57:53;3.95;;;1.70;;
37559;SDS011;23398;50.928;7.084;2022-08-24T01:00:25;3.22;;;1.83;;
37559;SDS011;23398;50.928;7.084;2022-08-24T01:02:55;3.05;;;1.95;;
37559;SDS011;23398;50.928;7.084;2022-08-24T01:05:25;2.60;;;1.80;;
37559;SDS011;23398;50.928;7.084;2022-08-24T01:07:51;3.15;;;1.83;;
37559;SDS011;23398;50.928;7.084;2022-08-24T01:10:18;3.08;;;2.00;;
37559;SDS011;23398;50.928;7.084;2022-08-24T01:12:49;3.22;;;2.20;;
37559;SDS011;23398;50.928;7.084;2022-08-24T01:15:18;2.42;;;1.90;;
37559;SDS011;23398;50.928;7.084;2022-08-24T01:17:44;2.75;;;1.83;;
37559;SDS011;23398;50.928;7.084;2022-08-24T01:20:28;2.58;;;2.00;;
37559;SDS011;23398;50.928;7.084;2022-08-24T01:22:58;2.55;;;1.83;;
37559;SDS011;23398;50.928;7.084;2022-08-24T01:25:32;3.90;;;2.10;;
37559;SDS011;23398;50.928;7.084;2022-08-24T01:28:03;3.25;;;2.08;;
37559;SDS011;23398;50.928;7.084;2022-08-24T01:30:32;2.78;;;1.85;;
37559;SDS011;23398;50.928;7.084;2022-08-24T01:32:59;2.83;;;1.90;;
37559;SDS011;23398;50.928;7.084;2022-08-24T01:35:28;3.17;;;1.83;;
37559;SDS011;23398;50.928;7.084;2022-08-24T01:37:55;2.20;;;1.80;;
37559;SDS011;23398;50.928;7.084;2022-08-24T01:40:25;3.75;;;2.22;;
37559;SDS011;23398;50.928;7.084;2022-08-24T01:42:57;2.50;;;1.90;;
37559;SDS011;23398;50.928;7.084;2022-08-24T01:45:23;2.47;;;1.95;;
37559;SDS011;23398;50.928;7.084;2022-08-24T01:47:48;2.33;;;1.98;;
37559;SDS011;23398;50.928;7.084;2022-08-24T01:50:14;3.88;;;1.63;;
37559;SDS011;23398;50.928;7.084;2022-08-24T01:52:40;2.42;;;2.00;;
37559;SDS011;23398;50.928;7.084;2022-08-24T01:55:08;2.80;;;1.80;;
37559;SDS011;23398;50.928;7.084;2022-08-24T01:57:35;2.15;;;1.88;;
37559;SDS011;23398;50.928;7.084;2022-08-24T02:00:03;2.25;;;2.03;;
37559;SDS011;23398;50.928;7.084;2022-08-24T02:02:31;1.98;;;1.77;;
37559;SDS011;23398;50.928;7.084;2022-08-24T02:04:57;3.10;;;2.20;;
37559;SDS011;23398;50.928;7.084;2022-08-24T02:07:22;2.10;;;1.90;;
37559;SDS011;23398;50.928;7.084;2022-08-24T02:09:49;3.20;;;1.95;;
37559;SDS011;23398;50.928;7.084;2022-08-24T02:12:15;2.42;;;1.90;;
37559;SDS011;23398;50.928;7.084;2022-08-24T02:14:41;3.05;;;2.03;;
37559;SDS011;23398;50.928;7.084;2022-08-24T02:17:07;2.67;;;2.15;;
37559;SDS011;23398;50.928;7.084;2022-08-24T02:19:33;4.40;;;1.90;;
37559;SDS011;23398;50.928;7.084;2022-08-24T02:22:00;2.88;;;2.22;;
37559;SDS011;23398;50.928;7.084;2022-08-24T02:24:26;2.30;;;1.90;;
37559;SDS011;23398;50.928;7.084;2022-08-24T02:26:53;2.35;;;2.00;;
37559;SDS011;23398;50.928;7.084;2022-08-24T02:29:19;2.75;;;2.00;;
37559;SDS011;23398;50.928;7.084;2022-08-24T02:31:45;4.30;;;1.90;;
37559;SDS011;23398;50.928;7.084;2022-08-24T02:34:11;2.60;;;2.10;;
37559;SDS011;23398;50.928;7.084;2022-08-24T02:36:37;2.95;;;2.17;;
37559;SDS011;23398;50.928;7.084;2022-08-24T02:39:03;3.53;;;2.10;;
37559;SDS011;23398;50.928;7.084;2022-08-24T02:41:30;2.83;;;1.92;;
37559;SDS011;23398;50.928;7.084;2022-08-24T02:43:56;3.08;;;1.90;;
37559;SDS011;23398;50.928;7.084;2022-08-24T02:46:24;2.50;;;1.98;;
37559;SDS011;23398;50.928;7.084;2022-08-24T02:48:51;3.53;;;2.05;;
37559;SDS011;23398;50.928;7.084;2022-08-24T02:51:18;2.20;;;2.00;;
37559;SDS011;23398;50.928;7.084;2022-08-24T02:53:49;2.90;;;1.85;;
37559;SDS011;23398;50.928;7.084;2022-08-24T02:56:15;2.30;;;1.90;;
37559;SDS011;23398;50.928;7.084;2022-08-24T02:58:41;3.28;;;2.35;;
37559;SDS011;23398;50.928;7.084;2022-08-24T03:01:08;2.58;;;2.10;;
37559;SDS011;23398;50.928;7.084;2022-08-24T03:03:34;2.92;;;1.95;;
37559;SDS011;23398;50.928;7.084;2022-08-24T03:06:00;2.75;;;2.08;;
37559;SDS011;23398;50.928;7.084;2022-08-24T03:08:26;2.40;;;2.13;;
37559;SDS011;23398;50.928;7.084;2022-08-24T03:10:51;2.45;;;2.20;;
37559;SDS011;23398;50.928;7.084;2022-08-24T03:13:17;4.95;;;2.17;;
37559;SDS011;23398;50.928;7.084;2022-08-24T03:15:43;3.33;;;2.20;;
37559;SDS011;23398;50.928;7.084;2022-08-24T03:18:10;3.35;;;2.03;;
37559;SDS011;23398;50.928;7.084;2022-08-24T03:20:36;4.28;;;2.30;;
37559;SDS011;23398;50.928;7.084;2022-08-24T03:23:02;3.63;;;2.30;;
37559;SDS011;23398;50.928;7.084;2022-08-24T03:25:28;2.20;;;2.00;;
37559;SDS011;23398;50.928;7.084;2022-08-24T03:27:54;3.50;;;1.98;;
37559;SDS011;23398;50.928;7.084;2022-08-24T03:30:19;3.75;;;2.25;;
37559;SDS011;23398;50.928;7.084;2022-08-24T03:32:46;2.53;;;2.20;;
37559;SDS011;23398;50.928;7.084;2022-08-24T03:35:12;3.40;;;2.17;;
37559;SDS011;23398;50.928;7.084;2022-08-24T03:37:38;3.05;;;2.38;;
37559;SDS011;23398;50.928;7.084;2022-08-24T03:40:05;2.40;;;1.98;;
37559;SDS011;23398;50.928;7.084;2022-08-24T03:42:33;2.53;;;2.28;;
37559;SDS011;23398;50.928;7.084;2022-08-24T03:44:58;2.90;;;2.00;;
37559;SDS011;23398;50.928;7.084;2022-08-24T03:47:24;2.10;;;1.90;;
37559;SDS011;23398;50.928;7.084;2022-08-24T03:49:50;1.90;;;1.80;;
37559;SDS011;23398;50.928;7.084;2022-08-24T03:52:15;2.15;;;1.95;;
37559;SDS011;23398;50.928;7.084;2022-08-24T03:54:41;3.22;;;2.20;;
37559;SDS011;23398;50.928;7.084;2022-08-24T03:57:07;3.38;;;2.17;;
37559;SDS011;23398;50.928;7.084;2022-08-24T03:59:32;2.35;;;2.00;;
37559;SDS011;23398;50.928;7.084;2022-08-24T04:01:58;3.38;;;2.10;;
37559;SDS011;23398;50.928;7.084;2022-08-24T04:04:24;4.25;;;2.10;;
37559;SDS011;23398;50.928;7.084;2022-08-24T04:06:50;2.90;;;2.17;;
37559;SDS011;23398;50.928;7.084;2022-08-24T04:09:16;2.92;;;2.00;;
37559;SDS011;23398;50.928;7.084;2022-08-24T04:11:41;2.42;;;2.03;;
37559;SDS011;23398;50.928;7.084;2022-08-24T04:14:10;2.80;;;2.42;;
37559;SDS011;23398;50.928;7.084;2022-08-24T04:16:36;2.92;;;2.20;;
37559;SDS011;23398;50.928;7.084;2022-08-24T04:19:02;3.10;;;2.30;;
37559;SDS011;23398;50.928;7.084;2022-08-24T04:21:29;2.60;;;2.10;;
37559;SDS011;23398;50.928;7.084;2022-08-24T04:23:56;3.85;;;2.15;;
37559;SDS011;23398;50.928;7.084;2022-08-24T04:26:24;3.40;;;2.20;;
37559;SDS011;23398;50.928;7.084;2022-08-24T04:28:52;2.60;;;2.40;;
37559;SDS011;23398;50.928;7.084;2022-08-24T04:31:18;3.50;;;2.50;;
37559;SDS011;23398;50.928;7.084;2022-08-24T04:33:45;3.13;;;2.38;;
37559;SDS011;23398;50.928;7.084;2022-08-24T04:36:13;3.08;;;2.42;;
37559;SDS011;23398;50.928;7.084;2022-08-24T04:38:40;3.47;;;2.47;;
37559;SDS011;23398;50.928;7.084;2022-08-24T04:41:07;3.33;;;2.13;;
37559;SDS011;23398;50.928;7.084;2022-08-24T04:43:35;3.13;;;2.60;;
37559;SDS011;23398;50.928;7.084;2022-08-24T04:46:03;2.97;;;2.20;;
37559;SDS011;23398;50.928;7.084;2022-08-24T04:48:30;2.88;;;2.40;;
37559;SDS011;23398;50.928;7.084;2022-08-24T04:50:59;3.50;;;2.30;;
37559;SDS011;23398;50.928;7.084;2022-08-24T04:53:26;3.67;;;2.35;;
37559;SDS011;23398;50.928;7.084;2022-08-24T04:55:52;2.35;;;2.10;;
37559;SDS011;23398;50.928;7.084;2022-08-24T04:58:18;3.65;;;2.50;;
37559;SDS011;23398;50.928;7.084;2022-08-24T05:00:44;5.40;;;2.55;;
37559;SDS011;23398;50.928;7.084;2022-08-24T05:03:10;3.65;;;2.58;;
37559;SDS011;23398;50.928;7.084;2022-08-24T05:05:45;2.90;;;2.45;;
37559;SDS011;23398;50.928;7.084;2022-08-24T05:08:13;3.00;;;2.40;;
37559;SDS011;23398;50.928;7.084;2022-08-24T05:10:41;2.90;;;2.40;;
37559;SDS011;23398;50.928;7.084;2022-08-24T05:13:08;4.05;;;2.60;;
37559;SDS011;23398;50.928;7.084;2022-08-24T05:15:35;3.22;;;2.50;;
37559;SDS011;23398;50.928;7.084;2022-08-24T05:18:09;2.67;;;2.45;;
37559;SDS011;23398;50.928;7.084;2022-08-24T05:20:38;3.92;;;2.35;;
37559;SDS011;23398;50.928;7.084;2022-08-24T05:23:05;2.35;;;2.10;;
37559;SDS011;23398;50.928;7.084;2022-08-24T05:25:31;3.30;;;2.47;;
37559;SDS011;23398;50.928;7.084;2022-08-24T05:27:57;3.47;;;2.33;;
37559;SDS011;23398;50.928;7.084;2022-08-24T05:30:22;3.13;;;2.40;;
37559;SDS011;23398;50.928;7.084;2022-08-24T05:32:48;3.08;;;2.58;;
37559;SDS011;23398;50.928;7.084;2022-08-24T05:35:14;4.22;;;2.67;;
37559;SDS011;23398;50.928;7.084;2022-08-24T05:37:40;4.07;;;2.83;;
37559;SDS011;23398;50.928;7.084;2022-08-24T05:40:08;2.45;;;2.25;;
37559;SDS011;23398;50.928;7.084;2022-08-24T05:42:36;4.07;;;2.80;;
37559;SDS011;23398;50.928;7.084;2022-08-24T05:45:02;3.45;;;2.45;;
37559;SDS011;23398;50.928;7.084;2022-08-24T05:47:29;3.42;;;2.53;;
37559;SDS011;23398;50.928;7.084;2022-08-24T05:49:54;4.10;;;2.70;;
37559;SDS011;23398;50.928;7.084;2022-08-24T05:52:20;3.28;;;2.40;;
37559;SDS011;23398;50.928;7.084;2022-08-24T05:54:50;3.13;;;2.38;;
37559;SDS011;23398;50.928;7.084;2022-08-24T05:57:17;3.70;;;2.63;;
37559;SDS011;23398;50.928;7.084;2022-08-24T05:59:43;3.40;;;2.53;;
37559;SDS011;23398;50.928;7.084;2022-08-24T06:02:09;4.20;;;2.78;;
37559;SDS011;23398;50.928;7.084;2022-08-24T06:04:34;3.08;;;2.50;;
37559;SDS011;23398;50.928;7.084;2022-08-24T06:07:02;3.40;;;2.80;;
37559;SDS011;23398;50.928;7.084;2022-08-24T06:09:28;3.33;;;2.78;;
37559;SDS011;23398;50.928;7.084;2022-08-24T06:11:54;5.00;;;2.95;;
37559;SDS011;23398;50.928;7.084;2022-08-24T06:14:19;3.35;;;2.72;;
37559;SDS011;23398;50.928;7.084;2022-08-24T06:16:46;3.85;;;2.70;;
37559;SDS011;23398;50.928;7.084;2022-08-24T06:19:13;3.95;;;2.80;;
37559;SDS011;23398;50.928;7.084;2022-08-24T06:21:41;3.45;;;2.65;;
37559;SDS011;23398;50.928;7.084;2022-08-24T06:24:07;3.97;;;2.78;;
37559;SDS011;23398;50.928;7.084;2022-08-24T06:26:34;2.95;;;2.65;;
37559;SDS011;23398;50.928;7.084;2022-08-24T06:29:18;5.82;;;2.60;;
37559;SDS011;23398;50.928;7.084;2022-08-24T06:31:45;4.32;;;2.50;;
37559;SDS011;23398;50.928;7.084;2022-08-24T06:34:13;3.47;;;2.55;;
37559;SDS011;23398;50.928;7.084;2022-08-24T06:36:41;3.35;;;2.35;;
37559;SDS011;23398;50.928;7.084;2022-08-24T06:39:07;3.45;;;2.67;;
37559;SDS011;23398;50.928;7.084;2022-08-24T06:41:33;3.22;;;2.30;;
37559;SDS011;23398;50.928;7.084;2022-08-24T06:44:00;3.45;;;2.28;;
37559;SDS011;23398;50.928;7.084;2022-08-24T06:46:26;3.67;;;2.83;;
37559;SDS011;23398;50.928;7.084;2022-08-24T06:48:52;3.42;;;2.35;;
37559;SDS011;23398;50.928;7.084;2022-08-24T06:51:18;4.25;;;2.67;;
37559;SDS011;23398;50.928;7.084;2022-08-24T06:53:47;4.28;;;2.45;;
37559;SDS011;23398;50.928;7.084;2022-08-24T06:56:14;5.00;;;2.25;;
37559;SDS011;23398;50.928;7.084;2022-08-24T06:58:41;3.05;;;2.20;;
37559;SDS011;23398;50.928;7.084;2022-08-24T07:01:11;2.80;;;1.98;;
37559;SDS011;23398;50.928;7.084;2022-08-24T07:03:42;3.20;;;1.98;;
37559;SDS011;23398;50.928;7.084;2022-08-24T07:06:08;2.90;;;2.33;;
37559;SDS011;23398;50.928;7.084;2022-08-24T07:08:36;2.53;;;2.05;;
37559;SDS011;23398;50.928;7.084;2022-08-24T07:11:02;2.67;;;2.00;;
37559;SDS011;23398;50.928;7.084;2022-08-24T07:13:29;2.83;;;1.90;;
37559;SDS011;23398;50.928;7.084;2022-08-24T07:15:56;3.17;;;1.98;;
37559;SDS011;23398;50.928;7.084;2022-08-24T07:18:23;2.53;;;2.10;;
37559;SDS011;23398;50.928;7.084;2022-08-24T07:20:48;3.15;;;1.92;;
37559;SDS011;23398;50.928;7.084;2022-08-24T07:23:15;2.58;;;1.98;;
37559;SDS011;23398;50.928;7.084;2022-08-24T07:25:42;3.70;;;1.60;;
37559;SDS011;23398;50.928;7.084;2022-08-24T07:28:08;2.17;;;1.67;;
37559;SDS011;23398;50.928;7.084;2022-08-24T07:30:36;3.50;;;1.80;;
37559;SDS011;23398;50.928;7.084;2022-08-24T07:33:02;1.92;;;1.70;;
37559;SDS011;23398;50.928;7.084;2022-08-24T07:35:29;2.35;;;1.88;;
37559;SDS011;23398;50.928;7.084;2022-08-24T07:37:56;3.35;;;1.83;;
37559;SDS011;23398;50.928;7.084;2022-08-24T07:40:22;2.03;;;1.70;;
37559;SDS011;23398;50.928;7.084;2022-08-24T07:42:50;2.47;;;1.80;;
37559;SDS011;23398;50.928;7.084;2022-08-24T07:45:17;2.42;;;1.70;;
37559;SDS011;23398;50.928;7.084;2022-08-24T07:47:43;1.85;;;1.70;;
37559;SDS011;23398;50.928;7.084;2022-08-24T07:50:10;2.58;;;1.67;;
37559;SDS011;23398;50.928;7.084;2022-08-24T07:52:37;2.45;;;1.83;;
37559;SDS011;23398;50.928;7.084;2022-08-24T07:55:03;2.60;;;1.77;;
37559;SDS011;23398;50.928;7.084;2022-08-24T07:57:29;3.05;;;2.00;;
37559;SDS011;23398;50.928;7.084;2022-08-24T07:59:57;4.13;;;1.70;;
37559;SDS011;23398;50.928;7.084;2022-08-24T08:02:23;1.73;;;1.63;;
37559;SDS011;23398;50.928;7.084;2022-08-24T08:04:50;1.85;;;1.73;;
37559;SDS011;23398;50.928;7.084;2022-08-24T08:07:15;2.55;;;2.00;;
37559;SDS011;23398;50.928;7.084;2022-08-24T08:09:41;3.17;;;1.70;;
37559;SDS011;23398;50.928;7.084;2022-08-24T08:12:07;2.38;;;1.75;;
37559;SDS011;23398;50.928;7.084;2022-08-24T08:14:33;2.60;;;1.88;;
37559;SDS011;23398;50.928;7.084;2022-08-24T08:16:58;2.45;;;2.03;;
37559;SDS011;23398;50.928;7.084;2022-08-24T08:19:24;2.75;;;1.90;;
37559;SDS011;23398;50.928;7.084;2022-08-24T08:21:50;2.22;;;1.70;;
37559;SDS011;23398;50.928;7.084;2022-08-24T08:24:36;2.20;;;2.00;;
37559;SDS011;23398;50.928;7.084;2022-08-24T08:27:03;2.28;;;1.67;;
37559;SDS011;23398;50.928;7.084;2022-08-24T08:29:30;2.72;;;1.77;;
37559;SDS011;23398;50.928;7.084;2022-08-24T08:31:57;1.98;;;1.80;;
37559;SDS011;23398;50.928;7.084;2022-08-24T08:34:23;2.30;;;1.83;;
37559;SDS011;23398;50.928;7.084;2022-08-24T08:36:49;2.28;;;1.90;;
37559;SDS011;23398;50.928;7.084;2022-08-24T08:39:15;2.30;;;1.90;;
37559;SDS011;23398;50.928;7.084;2022-08-24T08:50:14;2.30;;;2.10;;
37559;SDS011;23398;50.928;7.084;2022-08-24T08:55:41;2.20;;;2.00;;
37559;SDS011;23398;50.928;7.084;2022-08-24T09:14:47;2.45;;;2.15;;
37559;SDS011;23398;50.928;7.084;2022-08-24T09:17:36;2.22;;;2.03;;
37559;SDS011;23398;50.928;7.084;2022-08-24T09:20:22;4.00;;;2.35;;
37559;SDS011;23398;50.928;7.084;2022-08-24T09:36:56;2.47;;;2.28;;
37559;SDS011;23398;50.928;7.084;2022-08-24T09:39:45;4.63;;;2.50;;
37559;SDS011;23398;50.928;7.084;2022-08-24T09:42:41;2.85;;;2.55;;
37559;SDS011;23398;50.928;7.084;2022-08-24T10:04:39;2.45;;;2.25;;
37559;SDS011;23398;50.928;7.084;2022-08-24T10:07:23;4.15;;;2.30;;
37559;SDS011;23398;50.928;7.084;2022-08-24T10:10:09;3.28;;;2.38;;
37559;SDS011;23398;50.928;7.084;2022-08-24T10:12:43;2.53;;;2.33;;
37559;SDS011;23398;50.928;7.084;2022-08-24T10:15:28;2.53;;;2.33;;
37559;SDS011;23398;50.928;7.084;2022-08-24T10:20:27;3.67;;;2.35;;
37559;SDS011;23398;50.928;7.084;2022-08-24T10:31:42;2.67;;;2.47;;
37559;SDS011;23398;50.928;7.084;2022-08-24T10:43:09;2.50;;;2.03;;
37559;SDS011;23398;50.928;7.084;2022-08-24T10:48:47;2.53;;;1.58;;
37559;SDS011;23398;50.928;7.084;2022-08-24T10:51:27;1.73;;;1.40;;
37559;SDS011;23398;50.928;7.084;2022-08-24T10:54:21;1.50;;;1.40;;
37559;SDS011;23398;50.928;7.084;2022-08-24T11:05:01;3.28;;;1.58;;
37559;SDS011;23398;50.928;7.084;2022-08-24T11:07:35;1.73;;;1.48;;
37559;SDS011;23398;50.928;7.084;2022-08-24T11:10:05;2.67;;;1.63;;
37559;SDS011;23398;50.928;7.084;2022-08-24T11:12:34;2.55;;;1.60;;
37559;SDS011;23398;50.928;7.084;2022-08-24T11:15:02;4.43;;;1.63;;
37559;SDS011;23398;50.928;7.084;2022-08-24T11:17:33;2.65;;;1.60;;
37559;SDS011;23398;50.928;7.084;2022-08-24T11:19:59;2.35;;;1.77;;
37559;SDS011;23398;50.928;7.084;2022-08-24T11:22:34;2.60;;;1.60;;
37559;SDS011;23398;50.928;7.084;2022-08-24T11:27:50;2.53;;;1.42;;
37559;SDS011;23398;50.928;7.084;2022-08-24T11:30:23;1.40;;;1.30;;
37559;SDS011;23398;50.928;7.084;2022-08-24T11:32:58;2.85;;;1.30;;
37559;SDS011;23398;50.928;7.084;2022-08-24T11:35:27;2.08;;;1.33;;
37559;SDS011;23398;50.928;7.084;2022-08-24T11:38:10;3.63;;;1.30;;
37559;SDS011;23398;50.928;7.084;2022-08-24T11:40:45;2.08;;;1.63;;
37559;SDS011;23398;50.928;7.084;2022-08-24T11:43:19;1.52;;;1.35;;
37559;SDS011;23398;50.928;7.084;2022-08-24T11:46:01;2.55;;;1.48;;
37559;SDS011;23398;50.928;7.084;2022-08-24T11:48:52;2.47;;;1.25;;
37559;SDS011;23398;50.928;7.084;2022-08-24T11:54:24;2.15;;;1.38;;
37559;SDS011;23398;50.928;7.084;2022-08-24T12:00:06;1.80;;;1.48;;
37559;SDS011;23398;50.928;7.084;2022-08-24T12:11:02;1.40;;;1.30;;
37559;SDS011;23398;50.928;7.084;2022-08-24T12:13:54;1.60;;;1.38;;
37559;SDS011;23398;50.928;7.084;2022-08-24T12:16:36;2.85;;;1.60;;
37559;SDS011;23398;50.928;7.084;2022-08-24T12:19:28;1.70;;;1.23;;
37559;SDS011;23398;50.928;7.084;2022-08-24T12:21:57;3.33;;;1.23;;
37559;SDS011;23398;50.928;7.084;2022-08-24T12:24:38;2.70;;;1.40;;
37559;SDS011;23398;50.928;7.084;2022-08-24T12:29:31;2.45;;;1.20;;
37559;SDS011;23398;50.928;7.084;2022-08-24T12:32:06;3.78;;;1.50;;
37559;SDS011;23398;50.928;7.084;2022-08-24T12:34:52;2.95;;;1.70;;
37559;SDS011;23398;50.928;7.084;2022-08-24T12:37:30;1.60;;;1.33;;
37559;SDS011;23398;50.928;7.084;2022-08-24T12:40:04;2.28;;;1.60;;
37559;SDS011;23398;50.928;7.084;2022-08-24T12:42:52;3.83;;;1.40;;
37559;SDS011;23398;50.928;7.084;2022-08-24T12:45:29;1.83;;;1.60;;
37559;SDS011;23398;50.928;7.084;2022-08-24T13:01:03;5.85;;;2.20;;
37559;SDS011;23398;50.928;7.084;2022-08-24T13:03:37;4.15;;;1.73;;
37559;SDS011;23398;50.928;7.084;2022-08-24T13:06:16;2.50;;;2.00;;
37559;SDS011;23398;50.928;7.084;2022-08-24T13:08:45;3.28;;;1.48;;
37559;SDS011;23398;50.928;7.084;2022-08-24T13:11:30;2.60;;;1.67;;
37559;SDS011;23398;50.928;7.084;2022-08-24T13:14:06;2.67;;;1.60;;
37559;SDS011;23398;50.928;7.084;2022-08-24T13:29:35;2.22;;;1.50;;
37559;SDS011;23398;50.928;7.084;2022-08-24T13:32:01;1.80;;;1.50;;
37559;SDS011;23398;50.928;7.084;2022-08-24T13:34:43;2.08;;;1.40;;
37559;SDS011;23398;50.928;7.084;2022-08-24T13:48:19;1.60;;;1.40;;
37559;SDS011;23398;50.928;7.084;2022-08-24T13:53:46;1.70;;;1.35;;
37559;SDS011;23398;50.928;7.084;2022-08-24T13:56:25;3.45;;;1.40;;
37559;SDS011;23398;50.928;7.084;2022-08-24T13:59:08;2.15;;;1.50;;
37559;SDS011;23398;50.928;7.084;2022-08-24T14:04:32;2.50;;;1.50;;
37559;SDS011;23398;50.928;7.084;2022-08-24T14:12:43;2.35;;;1.50;;
37559;SDS011;23398;50.928;7.084;2022-08-24T14:20:53;1.67;;;1.35;;
37559;SDS011;23398;50.928;7.084;2022-08-24T14:42:34;2.22;;;1.67;;
37559;SDS011;23398;50.928;7.084;2022-08-24T14:45:08;2.13;;;1.58;;
37559;SDS011;23398;50.928;7.084;2022-08-24T14:48:01;2.13;;;1.63;;
37559;SDS011;23398;50.928;7.084;2022-08-24T14:50:37;2.05;;;1.40;;
37559;SDS011;23398;50.928;7.084;2022-08-24T14:59:01;2.55;;;1.52;;
37559;SDS011;23398;50.928;7.084;2022-08-24T15:01:46;1.60;;;1.40;;
37559;SDS011;23398;50.928;7.084;2022-08-24T15:06:49;2.35;;;1.65;;
37559;SDS011;23398;50.928;7.084;2022-08-24T15:12:01;3.33;;;1.60;;
37559;SDS011;23398;50.928;7.084;2022-08-24T15:14:50;1.90;;;1.60;;
37559;SDS011;23398;50.928;7.084;2022-08-24T15:17:20;2.53;;;1.40;;
37559;SDS011;23398;50.928;7.084;2022-08-24T15:20:14;1.73;;;1.58;;
37559;SDS011;23398;50.928;7.084;2022-08-24T15:25:54;2.15;;;1.73;;
37559;SDS011;23398;50.928;7.084;2022-08-24T15:28:26;4.70;;;1.75;;
37559;SDS011;23398;50.928;7.084;2022-08-24T15:33:23;3.47;;;1.80;;
37559;SDS011;23398;50.928;7.084;2022-08-24T15:35:50;2.60;;;1.67;;
37559;SDS011;23398;50.928;7.084;2022-08-24T15:41:13;2.55;;;1.80;;
37559;SDS011;23398;50.928;7.084;2022-08-24T15:43:45;1.77;;;1.55;;
37559;SDS011;23398;50.928;7.084;2022-08-24T15:46:18;4.38;;;1.85;;
37559;SDS011;23398;50.928;7.084;2022-08-24T15:48:47;2.58;;;1.65;;
37559;SDS011;23398;50.928;7.084;2022-08-24T15:51:32;6.28;;;1.88;;
37559;SDS011;23398;50.928;7.084;2022-08-24T15:54:25;2.20;;;1.67;;
37559;SDS011;23398;50.928;7.084;2022-08-24T16:10:31;1.70;;;1.55;;
37559;SDS011;23398;50.928;7.084;2022-08-24T16:15:47;2.30;;;1.65;;
37559;SDS011;23398;50.928;7.084;2022-08-24T16:18:17;3.03;;;1.70;;
37559;SDS011;23398;50.928;7.084;2022-08-24T16:20:45;2.60;;;1.77;;
37559;SDS011;23398;50.928;7.084;2022-08-24T16:23:25;2.40;;;1.65;;
37559;SDS011;23398;50.928;7.084;2022-08-24T16:28:42;2.20;;;1.48;;
37559;SDS011;23398;50.928;7.084;2022-08-24T16:31:08;2.25;;;1.70;;
37559;SDS011;23398;50.928;7.084;2022-08-24T16:33:38;2.08;;;1.50;;
37559;SDS011;23398;50.928;7.084;2022-08-24T16:36:07;3.33;;;1.63;;
37559;SDS011;23398;50.928;7.084;2022-08-24T16:38:36;1.80;;;1.45;;
37559;SDS011;23398;50.928;7.084;2022-08-24T16:41:05;1.90;;;1.77;;
37559;SDS011;23398;50.928;7.084;2022-08-24T16:43:33;4.15;;;1.70;;
37559;SDS011;23398;50.928;7.084;2022-08-24T16:46:01;2.00;;;1.80;;
37559;SDS011;23398;50.928;7.084;2022-08-24T16:48:28;3.95;;;1.70;;
37559;SDS011;23398;50.928;7.084;2022-08-24T16:50:55;1.63;;;1.52;;
37559;SDS011;23398;50.928;7.084;2022-08-24T16:53:21;1.70;;;1.60;;
37559;SDS011;23398;50.928;7.084;2022-08-24T16:55:48;1.92;;;1.83;;
37559;SDS011;23398;50.928;7.084;2022-08-24T16:58:14;3.75;;;1.80;;
37559;SDS011;23398;50.928;7.084;2022-08-24T17:00:40;2.63;;;1.98;;
37559;SDS011;23398;50.928;7.084;2022-08-24T17:03:06;2.22;;;1.73;;
37559;SDS011;23398;50.928;7.084;2022-08-24T17:05:32;1.85;;;1.55;;
37559;SDS011;23398;50.928;7.084;2022-08-24T17:07:58;2.00;;;1.80;;
37559;SDS011;23398;50.928;7.084;2022-08-24T17:10:25;1.70;;;1.60;;
37559;SDS011;23398;50.928;7.084;2022-08-24T17:12:51;2.10;;;1.60;;
37559;SDS011;23398;50.928;7.084;2022-08-24T17:15:18;1.60;;;1.40;;
37559;SDS011;23398;50.928;7.084;2022-08-24T17:20:39;3.00;;;1.40;;
37559;SDS011;23398;50.928;7.084;2022-08-24T17:23:05;3.00;;;1.70;;
37559;SDS011;23398;50.928;7.084;2022-08-24T17:25:32;3.15;;;1.80;;
37559;SDS011;23398;50.928;7.084;2022-08-24T17:27:58;3.58;;;1.98;;
37559;SDS011;23398;50.928;7.084;2022-08-24T17:30:24;3.67;;;1.77;;
37559;SDS011;23398;50.928;7.084;2022-08-24T17:32:50;2.45;;;1.90;;
37559;SDS011;23398;50.928;7.084;2022-08-24T17:35:17;3.47;;;1.70;;
37559;SDS011;23398;50.928;7.084;2022-08-24T17:37:44;1.75;;;1.63;;
37559;SDS011;23398;50.928;7.084;2022-08-24T17:40:11;3.95;;;2.08;;
37559;SDS011;23398;50.928;7.084;2022-08-24T17:42:40;1.77;;;1.67;;
37559;SDS011;23398;50.928;7.084;2022-08-24T17:45:06;1.95;;;1.75;;
37559;SDS011;23398;50.928;7.084;2022-08-24T17:47:32;1.80;;;1.65;;
37559;SDS011;23398;50.928;7.084;2022-08-24T17:49:58;2.45;;;1.80;;
37559;SDS011;23398;50.928;7.084;2022-08-24T17:52:24;1.90;;;1.75;;
37559;SDS011;23398;50.928;7.084;2022-08-24T17:54:50;3.67;;;1.83;;
37559;SDS011;23398;50.928;7.084;2022-08-24T17:57:16;4.38;;;1.80;;
37559;SDS011;23398;50.928;7.084;2022-08-24T17:59:42;2.28;;;1.85;;
37559;SDS011;23398;50.928;7.084;2022-08-24T18:02:08;3.17;;;1.80;;
37559;SDS011;23398;50.928;7.084;2022-08-24T18:04:38;3.50;;;1.70;;
37559;SDS011;23398;50.928;7.084;2022-08-24T18:07:06;1.60;;;1.50;;
37559;SDS011;23398;50.928;7.084;2022-08-24T18:09:35;3.65;;;2.10;;
37559;SDS011;23398;50.928;7.084;2022-08-24T18:12:04;2.20;;;1.58;;
37559;SDS011;23398;50.928;7.084;2022-08-24T18:14:31;4.60;;;1.80;;
37559;SDS011;23398;50.928;7.084;2022-08-24T18:17:00;5.75;;;2.00;;
37559;SDS011;23398;50.928;7.084;2022-08-24T18:19:28;2.60;;;2.00;;
37559;SDS011;23398;50.928;7.084;2022-08-24T18:21:55;2.45;;;1.67;;
37559;SDS011;23398;50.928;7.084;2022-08-24T18:24:20;3.63;;;1.90;;
37559;SDS011;23398;50.928;7.084;2022-08-24T18:26:46;2.28;;;1.63;;
37559;SDS011;23398;50.928;7.084;2022-08-24T18:29:17;2.42;;;1.77;;
37559;SDS011;23398;50.928;7.084;2022-08-24T18:31:45;2.00;;;1.52;;
37559;SDS011;23398;50.928;7.084;2022-08-24T18:34:12;3.35;;;1.80;;
37559;SDS011;23398;50.928;7.084;2022-08-24T18:36:41;2.83;;;1.73;;
37559;SDS011;23398;50.928;7.084;2022-08-24T18:39:07;2.83;;;1.70;;
37559;SDS011;23398;50.928;7.084;2022-08-24T18:41:33;2.47;;;1.70;;
37559;SDS011;23398;50.928;7.084;2022-08-24T18:44:05;1.95;;;1.70;;
37559;SDS011;23398;50.928;7.084;2022-08-24T18:46:33;2.33;;;1.70;;
37559;SDS011;23398;50.928;7.084;2022-08-24T18:48:59;2.33;;;1.75;;